Time;durP1;ratioP1;P1;durP2;ratioP2;P2;SDS_P1;SDS_P2;PMS_P1;PMS_P2;Temp;Humidity;BMP_temperature;BMP_pressure;BME280_temperature;BME280_humidity;BME280_pressure;Samples;Min_cycle;Max_cycle;Signal;HPM_P1;HPM_P2
2022/07/19 00:01:43;;;;;;;;;;;;;;;-144.99;82.60;52174.97;4978078;28;19930;-78
2022/07/19 00:04:10;;;;;;;;;;;;;;;-144.99;82.83;52154.59;5002897;28;20005;-78
2022/07/19 00:06:37;;;;;;;;;;;;;;;-144.99;82.98;52230.00;4990914;28;19987;-79
2022/07/19 00:09:04;;;;;;;;;;;;;;;-144.99;83.39;52179.06;4982565;28;19967;-78
2022/07/19 00:11:31;;;;;;;;;;;;;;;-144.99;84.13;52183.13;4953102;28;19967;-78
2022/07/19 00:13:58;;;;;;;;;;;;;;;-144.99;83.99;52183.13;4994397;28;20388;-76
2022/07/19 00:16:25;;;;;;;;;;;;;;;-144.99;84.17;52179.06;4969556;28;20002;-77
2022/07/19 00:18:51;;;;;;;;;;;;;;;-144.99;84.75;52193.31;4951746;28;19945;-77
2022/07/19 00:21:18;;;;;;;;;;;;;;;-144.99;85.07;52213.69;4929229;28;19927;-78
2022/07/19 00:23:44;;;;;;;;;;;;;;;-144.99;85.19;52187.19;4956816;28;19944;-73
2022/07/19 00:26:10;;;;;;;;;;;;;;;-144.99;85.68;52213.69;4958836;28;19933;-75
2022/07/19 00:28:38;;;;;;;;;;;;;;;-144.99;85.90;52232.03;4995083;28;20348;-77
2022/07/19 00:31:05;;;;;;;;;;;;;;;-144.99;85.92;52211.66;4965190;28;20034;-79
2022/07/19 00:33:32;;;;;;;;;;;;;;;-144.99;86.18;52207.59;4949239;28;20024;-77
2022/07/19 00:35:58;;;;;;;;;;;;;;;-144.99;86.37;52219.81;4929692;28;19926;-78
2022/07/19 00:38:25;;;;;;;;;;;;;;;-144.99;86.42;52223.88;4955553;28;20003;-77
2022/07/19 00:40:51;;;;;;;;;;;;;;;-144.99;86.46;52174.97;4927276;28;19931;-75
2022/07/19 00:43:18;;;;;;;;;;;;;;;-144.99;86.86;52158.66;4966165;28;19971;-77
2022/07/19 00:45:46;;;;;;;;;;;;;;;-144.99;86.92;52154.59;4957372;28;19927;-77
2022/07/19 00:48:12;;;;;;;;;;;;;;;-144.99;87.30;52199.44;4981442;28;19960;-76
2022/07/19 00:50:39;;;;;;;;;;;;;;;-144.99;87.84;52232.03;4984983;28;20020;-77
2022/07/19 00:53:06;;;;;;;;;;;;;;;-144.99;87.71;52187.19;4986122;28;19933;-76
2022/07/19 00:55:33;;;;;;;;;;;;;;;-144.99;88.01;52158.66;4970734;28;19925;-77
2022/07/19 00:58:00;;;;;;;;;;;;;;;-144.99;88.28;52189.25;4972199;28;19936;-76
2022/07/19 01:00:27;;;;;;;;;;;;;;;-144.99;87.96;52211.66;4927094;28;19931;-77
2022/07/19 01:02:55;;;;;;;;;;;;;;;-144.99;88.09;52187.19;4926177;28;19927;-73
2022/07/19 01:05:22;;;;;;;;;;;;;;;-144.99;88.34;52244.28;4988380;28;19925;-72
2022/07/19 01:07:49;;;;;;;;;;;;;;;-144.99;88.91;52211.66;4965512;28;19926;-79
2022/07/19 01:10:16;;;;;;;;;;;;;;;-144.99;89.19;52207.59;4945385;28;19934;-81
2022/07/19 01:12:43;;;;;;;;;;;;;;;-144.99;89.83;52199.44;4981700;28;19922;-80
2022/07/19 01:15:13;;;;;;;;;;;;;;;-144.99;90.32;52172.94;4980714;28;20358;-79
2022/07/19 01:17:40;;;;;;;;;;;;;;;-144.99;90.25;52174.97;4981884;28;19934;-79
2022/07/19 01:20:08;;;;;;;;;;;;;;;-144.99;90.02;52197.41;4965371;28;20017;-77
2022/07/19 01:22:36;;;;;;;;;;;;;;;-144.99;90.48;52183.13;4929779;28;20004;-76
2022/07/19 01:25:03;;;;;;;;;;;;;;;-144.99;90.56;52213.69;4939739;28;19927;-78
2022/07/19 01:27:30;;;;;;;;;;;;;;;-144.99;89.93;52211.66;4943051;28;19971;-78
2022/07/19 01:29:56;;;;;;;;;;;;;;;-144.99;90.35;52195.34;4973280;28;20224;-79
2022/07/19 01:32:23;;;;;;;;;;;;;;;-144.99;90.25;52187.19;4940832;28;19931;-78
2022/07/19 01:34:49;;;;;;;;;;;;;;;-144.99;90.16;52199.44;4962509;28;19927;-78
2022/07/19 01:37:16;;;;;;;;;;;;;;;-144.99;90.46;52232.03;4973044;28;19927;-78
2022/07/19 01:39:44;;;;;;;;;;;;;;;-144.99;90.42;52158.66;4936153;28;19958;-78
2022/07/19 01:42:10;;;;;;;;;;;;;;;-144.99;90.49;52207.59;4957176;28;20010;-78
2022/07/19 01:44:37;;;;;;;;;;;;;;;-144.99;90.84;52181.09;4988214;28;19944;-78
2022/07/19 01:47:03;;;;;;;;;;;;;;;-144.99;90.77;52199.44;4958714;28;19930;-79
2022/07/19 01:49:30;;;;;;;;;;;;;;;-144.99;90.65;52211.66;4982706;28;19987;-78
2022/07/19 01:51:56;;;;;;;;;;;;;;;-144.99;91.05;52232.03;4947698;28;19927;-78
2022/07/19 01:54:23;;;;;;;;;;;;;;;-144.99;90.98;52232.03;4948850;28;20019;-79
2022/07/19 01:56:51;;;;;;;;;;;;;;;-144.99;91.32;52211.66;4974949;28;19927;-78
2022/07/19 01:59:17;;;;;;;;;;;;;;;-144.99;91.80;52211.66;4952950;28;19926;-78
2022/07/19 02:01:44;;;;;;;;;;;;;;;-144.99;92.05;52215.75;4967920;28;19931;-78
2022/07/19 02:04:10;;;;;;;;;;;;;;;-144.99;91.95;52215.75;4958595;28;19931;-78
2022/07/19 02:06:37;;;;;;;;;;;;;;;-144.99;91.67;52219.81;4932886;28;19927;-79
2022/07/19 02:09:03;;;;;;;;;;;;;;;-144.99;91.46;52179.06;4938456;28;19931;-80
2022/07/19 02:11:39;;;;;;;;;;;;;;;-144.99;91.11;52203.50;4983434;28;20307;-80
2022/07/19 02:14:08;;;;;;;;;;;;;;;-144.99;91.28;52199.44;4986921;28;19925;-81
2022/07/19 02:16:35;;;;;;;;;;;;;;;-144.99;91.85;52203.50;4940566;28;19985;-81
2022/07/19 02:19:01;;;;;;;;;;;;;;;-144.99;91.82;52227.97;4966614;28;19937;-79
2022/07/19 02:21:28;;;;;;;;;;;;;;;-144.99;91.70;52199.44;5010713;28;19933;-76
2022/07/19 02:23:55;;;;;;;;;;;;;;;-144.99;92.01;52195.34;4974918;28;20024;-79
2022/07/19 02:26:21;;;;;;;;;;;;;;;-144.99;91.88;52227.97;4956905;28;19943;-81
2022/07/19 02:28:48;;;;;;;;;;;;;;;-144.99;91.90;52183.13;4960609;23;19931;-74
2022/07/19 02:31:16;;;;;;;;;;;;;;;-144.99;91.79;52199.44;4986070;28;19925;-75
2022/07/19 02:33:42;;;;;;;;;;;;;;;-144.99;91.63;52197.41;4988622;28;19925;-74
2022/07/19 02:36:09;;;;;;;;;;;;;;;-144.99;92.00;52240.19;4989742;28;20025;-74
2022/07/19 02:38:35;;;;;;;;;;;;;;;-144.99;92.29;52252.44;4987024;28;19929;-75
2022/07/19 02:41:02;;;;;;;;;;;;;;;-144.99;92.25;52199.44;4989498;28;19926;-75
2022/07/19 02:43:28;;;;;;;;;;;;;;;-144.99;92.24;52260.56;5002511;28;19986;-74
2022/07/19 02:45:55;;;;;;;;;;;;;;;-144.99;92.24;52187.19;4992075;28;19948;-76
2022/07/19 02:48:23;;;;;;;;;;;;;;;-144.99;92.59;52199.44;4989467;28;20373;-75
2022/07/19 02:50:49;;;;;;;;;;;;;;;-144.99;93.26;52205.53;4985464;28;19929;-74
2022/07/19 02:53:16;;;;;;;;;;;;;;;-144.99;93.36;52215.75;4987707;28;19957;-74
2022/07/19 02:55:42;;;;;;;;;;;;;;;-144.99;93.37;52207.59;4988849;28;20008;-72
2022/07/19 02:58:09;;;;;;;;;;;;;;;-144.99;93.43;52187.19;4985825;28;19929;-73
2022/07/19 03:00:35;;;;;;;;;;;;;;;-144.99;93.50;52252.44;4988464;28;19926;-73
2022/07/19 03:05:44;;;;;;;;;;;;;;;-144.99;93.19;52219.81;4987355;28;19926;-71
2022/07/19 03:08:10;;;;;;;;;;;;;;;-144.99;93.31;52219.81;4984768;28;19965;-73
2022/07/19 03:10:37;;;;;;;;;;;;;;;-144.99;93.26;52193.31;4981284;28;20371;-71
2022/07/19 03:13:03;;;;;;;;;;;;;;;-144.99;93.38;52215.75;4985389;28;20176;-72
2022/07/19 03:15:30;;;;;;;;;;;;;;;-144.99;93.50;52240.19;4987982;28;19929;-72
2022/07/19 03:17:56;;;;;;;;;;;;;;;-144.99;93.36;52240.19;4986491;28;20446;-73
2022/07/19 03:20:23;;;;;;;;;;;;;;;-144.99;93.35;52215.75;4987868;28;19930;-73
2022/07/19 03:22:51;;;;;;;;;;;;;;;-144.99;93.14;52207.59;4986756;28;19926;-74
2022/07/19 03:25:18;;;;;;;;;;;;;;;-144.99;93.19;52219.81;5004325;28;19979;-76
2022/07/19 03:27:44;;;;;;;;;;;;;;;-144.99;93.46;52193.31;4990461;28;20440;-76
2022/07/19 03:30:11;;;;;;;;;;;;;;;-144.99;94.06;52183.13;4990766;28;19961;-74
2022/07/19 03:32:37;;;;;;;;;;;;;;;-144.99;94.03;52219.81;4987391;28;20128;-73
2022/07/19 03:35:04;;;;;;;;;;;;;;;-144.99;94.25;52223.88;4987333;28;19976;-73
2022/07/19 03:37:31;;;;;;;;;;;;;;;-144.99;94.18;52234.09;4987235;28;19987;-72
2022/07/19 03:39:59;;;;;;;;;;;;;;;-144.99;94.27;52219.81;4986440;28;19926;-72
2022/07/19 03:42:25;;;;;;;;;;;;;;;-144.99;94.13;52199.44;4986043;28;20008;-72
2022/07/19 03:44:52;;;;;;;;;;;;;;;-144.99;94.10;52215.75;4987230;28;19926;-72
2022/07/19 03:47:18;;;;;;;;;;;;;;;-144.99;94.06;52195.34;4987045;28;19979;-72
2022/07/19 03:49:45;;;;;;;;;;;;;;;-144.99;93.97;52232.03;4987050;28;19987;-73
2022/07/19 03:52:12;;;;;;;;;;;;;;;-144.99;94.01;52252.44;4986373;28;19981;-71
2022/07/19 03:54:38;;;;;;;;;;;;;;;-144.99;93.88;52191.28;4988539;28;19933;-71
2022/07/19 03:57:06;;;;;;;;;;;;;;;-144.99;93.57;52215.75;4988633;28;20413;-72
2022/07/19 03:59:33;;;;;;;;;;;;;;;-144.99;93.53;52240.19;4985543;28;19979;-74
2022/07/19 04:01:59;;;;;;;;;;;;;;;-144.99;92.98;52207.59;4991057;28;19933;-75
2022/07/19 04:04:26;;;;;;;;;;;;;;;-144.99;92.89;52195.34;4993336;28;19926;-77
2022/07/19 04:06:52;;;;;;;;;;;;;;;-144.99;92.49;52203.50;4994080;28;19926;-78
2022/07/19 04:09:19;;;;;;;;;;;;;;;-144.99;92.32;52211.66;5039196;28;19924;-72
2022/07/19 04:11:45;;;;;;;;;;;;;;;-144.99;92.10;52199.44;4987585;28;19934;-71
2022/07/19 04:14:13;;;;;;;;;;;;;;;-144.99;91.72;52223.88;4987581;28;19926;-71
2022/07/19 04:16:40;;;;;;;;;;;;;;;-144.99;91.35;52195.34;4978844;28;19926;-75
2022/07/19 04:19:06;;;;;;;;;;;;;;;-144.99;90.71;52203.50;4988617;28;20355;-73
2022/07/19 04:21:33;;;;;;;;;;;;;;;-144.99;90.48;52183.13;4986646;28;19980;-73
2022/07/19 04:23:59;;;;;;;;;;;;;;;-144.99;90.16;52187.19;4987079;28;19969;-74
2022/07/19 04:26:26;;;;;;;;;;;;;;;-144.99;89.50;52217.78;4985642;28;19925;-73
2022/07/19 04:28:52;;;;;;;;;;;;;;;-144.99;89.20;52199.44;4986951;28;19926;-74
2022/07/19 04:31:20;;;;;;;;;;;;;;;-144.99;88.44;52195.34;4984922;28;20257;-73
2022/07/19 04:33:47;;;;;;;;;;;;;;;-144.99;87.90;52187.19;4986611;28;19930;-73
2022/07/19 04:36:13;;;;;;;;;;;;;;;-144.99;87.47;52193.31;4988158;28;20097;-72
2022/07/19 04:38:40;;;;;;;;;;;;;;;-144.99;87.16;52215.75;4987498;28;19952;-72
2022/07/19 04:41:06;;;;;;;;;;;;;;;-144.99;86.70;52199.44;4986257;28;19976;-75
2022/07/19 04:43:33;;;;;;;;;;;;;;;-144.99;86.33;52158.66;4986129;28;19925;-75
2022/07/19 04:45:59;;;;;;;;;;;;;;;-144.99;86.05;52209.63;4989593;28;19941;-73
2022/07/19 04:48:27;;;;;;;;;;;;;;;-144.99;85.63;52158.66;4989604;28;19930;-75
2022/07/19 04:50:54;;;;;;;;;;;;;;;-144.99;84.94;52227.97;4990695;28;20354;-73
2022/07/19 04:53:20;;;;;;;;;;;;;;;-144.99;84.35;52154.59;4991192;28;19965;-74
2022/07/19 04:55:47;;;;;;;;;;;;;;;-144.99;83.53;52187.19;4993968;28;19933;-74
2022/07/19 04:58:13;;;;;;;;;;;;;;;-144.99;83.01;52195.34;4997339;28;20408;-73
2022/07/19 05:00:40;;;;;;;;;;;;;;;-144.99;82.73;52172.94;4996160;28;19965;-76
2022/07/19 05:03:06;;;;;;;;;;;;;;;-144.99;82.71;52179.06;5000805;28;19925;-75
2022/07/19 05:05:34;;;;;;;;;;;;;;;-144.99;82.23;52183.13;4996226;28;19957;-74
2022/07/19 05:08:01;;;;;;;;;;;;;;;-144.99;81.37;52170.91;4994045;28;19947;-74
2022/07/19 05:10:27;;;;;;;;;;;;;;;-144.99;80.79;52211.66;4988078;28;19933;-73
2022/07/19 05:12:53;;;;;;;;;;;;;;;-144.99;80.18;52183.13;4298321;28;10000738;-70
2022/07/19 05:15:20;;;;;;;;;;;;;;;-144.99;79.58;52179.06;4987111;28;20193;-71
2022/07/19 05:17:46;;;;;;;;;;;;;;;-144.99;79.01;52162.75;4985664;28;19930;-70
2022/07/19 05:20:15;;;;;;;;;;;;;;;-144.99;78.33;52187.19;5008127;28;19929;-69
2022/07/19 05:22:43;;;;;;;;;;;;;;;-144.99;78.09;52121.97;4989852;28;19930;-69
2022/07/19 05:25:10;;;;;;;;;;;;;;;-144.99;77.70;52170.91;4985179;28;19929;-72
2022/07/19 05:27:37;;;;;;;;;;;;;;;-144.99;77.19;52134.22;4980058;28;19925;-72
2022/07/19 05:30:04;;;;;;;;;;;;;;;-144.99;77.06;52170.91;4980924;28;19934;-73
2022/07/19 05:32:30;;;;;;;;;;;;;;;-144.99;76.98;52174.97;4985148;28;19930;-72
2022/07/19 05:34:57;;;;;;;;;;;;;;;-144.99;76.54;52138.28;4986182;28;19925;-72
2022/07/19 05:37:23;;;;;;;;;;;;;;;-144.99;75.90;52170.91;4985598;28;20349;-70
2022/07/19 05:39:51;;;;;;;;;;;;;;;-144.99;75.40;52195.34;4985379;28;19930;-71
2022/07/19 05:42:17;;;;;;;;;;;;;;;-144.99;74.28;52174.97;4984938;28;19937;-73
2022/07/19 05:44:44;;;;;;;;;;;;;;;-144.99;74.45;52166.81;4986814;28;19929;-70
2022/07/19 05:47:10;;;;;;;;;;;;;;;-144.99;73.27;52195.34;4986586;28;19938;-71
2022/07/19 05:49:37;;;;;;;;;;;;;;;-144.99;72.54;52150.53;4987796;28;19930;-71
2022/07/19 05:52:04;;;;;;;;;;;;;;;-144.99;71.72;52142.38;4985017;28;20481;-70
2022/07/19 05:54:30;;;;;;;;;;;;;;;-144.99;71.24;52117.91;4999710;28;20019;-70
2022/07/19 05:56:58;;;;;;;;;;;;;;;-144.99;70.15;52142.38;4987173;28;19930;-71
2022/07/19 05:59:24;;;;;;;;;;;;;;;-144.99;69.62;52154.59;4998761;28;20301;-72
2022/07/19 06:01:51;;;;;;;;;;;;;;;-144.99;69.94;52156.63;4983234;28;19929;-71
2022/07/19 06:04:18;;;;;;;;;;;;;;;-144.99;69.20;52109.75;4985192;28;20018;-72
2022/07/19 06:06:44;;;;;;;;;;;;;;;-144.99;69.50;52146.44;4985642;28;19929;-71
2022/07/19 06:09:12;;;;;;;;;;;;;;;-144.99;69.41;52154.59;4986254;28;19930;-71
2022/07/19 06:11:39;;;;;;;;;;;;;;;-144.99;67.68;52162.75;4978229;28;19937;-69
2022/07/19 06:14:08;;;;;;;;;;;;;;;-144.99;67.03;52146.44;4983767;28;19972;-71
2022/07/19 06:16:35;;;;;;;;;;;;;;;-144.99;66.38;52115.88;4986480;28;20004;-72
2022/07/19 06:19:01;;;;;;;;;;;;;;;-144.99;65.64;52158.66;4986562;28;19930;-73
2022/07/19 06:21:28;;;;;;;;;;;;;;;-144.99;65.22;52156.63;4986276;28;19926;-72
2022/07/19 06:23:54;;;;;;;;;;;;;;;-144.99;64.44;52166.81;4986464;28;19926;-71
2022/07/19 06:26:21;;;;;;;;;;;;;;;-144.99;64.26;52117.91;4981378;28;19973;-71
2022/07/19 06:28:47;;;;;;;;;;;;;;;-144.99;64.12;52101.59;4985049;28;20357;-73
2022/07/19 06:31:16;;;;;;;;;;;;;;;-144.99;63.50;52091.41;4982475;28;19999;-73
2022/07/19 06:33:43;;;;;;;;;;;;;;;-144.99;64.47;52119.94;4986338;28;20352;-72
2022/07/19 06:36:10;;;;;;;;;;;;;;;-144.99;63.16;52105.69;4985497;28;19929;-72
2022/07/19 06:38:36;;;;;;;;;;;;;;;-144.99;62.05;52060.84;4985335;28;20014;-73
2022/07/19 06:41:03;;;;;;;;;;;;;;;-144.99;61.58;52062.88;4985084;28;20071;-71
2022/07/19 06:43:30;;;;;;;;;;;;;;;-144.99;60.81;52109.75;4983479;28;19938;-72
2022/07/19 06:45:57;;;;;;;;;;;;;;;-144.99;59.08;52091.41;4984712;28;20351;-72
2022/07/19 06:48:25;;;;;;;;;;;;;;;-144.99;57.97;52115.88;4996007;28;19941;-70
2022/07/19 06:50:51;;;;;;;;;;;;;;;-144.99;57.52;52077.16;4984231;28;19934;-72
2022/07/19 06:53:18;;;;;;;;;;;;;;;-144.99;56.88;52101.59;4982110;28;20013;-70
2022/07/19 06:55:44;;;;;;;;;;;;;;;-144.99;57.48;52109.75;4983425;28;19991;-71
2022/07/19 06:58:11;;;;;;;;;;;;;;;-144.99;57.93;52073.06;4987003;28;19983;-70
2022/07/19 07:00:38;;;;;;;;;;;;;;;-144.99;57.37;52066.97;4982545;28;20478;-71
2022/07/19 07:03:05;;;;;;;;;;;;;;;-144.99;56.64;52081.22;4980948;28;20133;-72
2022/07/19 07:05:33;;;;;;;;;;;;;;;-144.99;56.56;52064.91;4984431;28;19951;-73
2022/07/19 07:07:59;;;;;;;;;;;;;;;-144.99;55.92;52081.22;4994355;28;19972;-71
2022/07/19 07:10:26;;;;;;;;;;;;;;;-144.99;56.51;52069.00;4977226;28;20293;-70
2022/07/19 07:12:52;;;;;;;;;;;;;;;-144.99;56.14;52040.47;4978373;28;19956;-71
2022/07/19 07:15:19;;;;;;;;;;;;;;;-144.99;55.23;52036.38;4982045;28;19958;-71
2022/07/19 07:17:45;;;;;;;;;;;;;;;-144.99;54.65;52036.38;4981097;28;19995;-71
2022/07/19 07:20:12;;;;;;;;;;;;;;;-144.99;54.67;52028.22;4982221;28;19926;-72
2022/07/19 07:22:40;;;;;;;;;;;;;;;-144.99;53.58;52087.34;4987343;28;19955;-74
2022/07/19 07:25:07;;;;;;;;;;;;;;;-144.99;53.09;52052.69;4981619;28;20124;-71
2022/07/19 07:27:33;;;;;;;;;;;;;;;-144.99;52.70;52077.16;4980089;28;19930;-71
2022/07/19 07:30:00;;;;;;;;;;;;;;;-144.99;50.97;52056.78;4981133;28;19934;-73
2022/07/19 07:32:27;;;;;;;;;;;;;;;-144.99;51.62;52081.22;4996847;28;19934;-72
2022/07/19 07:34:53;;;;;;;;;;;;;;;-144.99;51.85;52056.78;4982590;28;19936;-71
2022/07/19 07:37:20;;;;;;;;;;;;;;;-144.99;51.14;52036.38;5005664;28;19929;-71
2022/07/19 07:39:48;;;;;;;;;;;;;;;-144.99;50.87;52028.22;4993788;28;20041;-71
2022/07/19 07:42:14;;;;;;;;;;;;;;;-144.99;49.64;52044.53;4998911;28;20534;-72
2022/07/19 07:44:41;;;;;;;;;;;;;;;-144.99;48.50;52044.53;4981574;28;20327;-73
2022/07/19 07:47:09;;;;;;;;;;;;;;;-144.99;48.06;52044.53;4982431;28;19930;-72
2022/07/19 07:49:35;;;;;;;;;;;;;;;-144.99;47.84;52048.63;4982232;28;19926;-73
2022/07/19 07:52:02;;;;;;;;;;;;;;;-144.99;48.08;52044.53;4982022;28;19930;-72
2022/07/19 07:54:28;;;;;;;;;;;;;;;-144.99;47.91;52062.88;4982957;28;19930;-74
2022/07/19 07:56:56;;;;;;;;;;;;;;;-144.99;48.37;52032.31;4984545;28;19929;-71
2022/07/19 07:59:23;;;;;;;;;;;;;;;-144.99;47.96;52028.22;4982196;28;20262;-72
2022/07/19 08:01:49;;;;;;;;;;;;;;;-144.99;48.17;52032.31;4983447;28;19975;-72
2022/07/19 08:04:16;;;;;;;;;;;;;;;-144.99;47.72;52030.28;4982834;28;19930;-71
2022/07/19 08:06:42;;;;;;;;;;;;;;;-144.99;47.91;52032.31;4984493;28;20007;-72
2022/07/19 08:09:09;;;;;;;;;;;;;;;-144.99;47.70;52032.31;4983993;28;19937;-73
2022/07/19 08:11:35;;;;;;;;;;;;;;;-144.99;47.00;51999.69;4982661;28;20347;-73
2022/07/19 08:14:03;;;;;;;;;;;;;;;-144.99;46.42;52020.09;4979654;28;20017;-71
2022/07/19 08:16:30;;;;;;;;;;;;;;;-144.99;46.28;52007.84;4981454;28;20041;-72
2022/07/19 08:18:57;;;;;;;;;;;;;;;-144.99;44.97;52062.88;4981237;28;19930;-72
2022/07/19 08:21:24;;;;;;;;;;;;;;;-144.99;43.93;52016.00;4992005;28;19944;-73
2022/07/19 08:23:51;;;;;;;;;;;;;;;-144.99;42.80;52005.81;4995517;28;19926;-73
2022/07/19 08:26:17;;;;;;;;;;;;;;;-144.99;42.59;52028.22;4992357;28;19988;-73
2022/07/19 08:28:46;;;;;;;;;;;;;;;-144.99;42.40;52036.38;4988745;28;19930;-71
2022/07/19 08:31:14;;;;;;;;;;;;;;;-144.99;41.52;52036.38;5004994;23;19929;-77
2022/07/19 08:33:41;;;;;;;;;;;;;;;-144.99;41.50;52060.84;4979387;28;19973;-75
2022/07/19 08:36:09;;;;;;;;;;;;;;;-144.99;41.25;52030.28;4981184;28;20246;-73
2022/07/19 08:38:35;;;;;;;;;;;;;;;-144.99;40.44;52040.47;4981985;28;19932;-77
2022/07/19 08:41:02;;;;;;;;;;;;;;;-144.99;40.27;52007.84;5052457;28;20454;-77
2022/07/19 08:43:29;;;;;;;;;;;;;;;-144.99;39.61;52011.94;5068147;28;20441;-77
2022/07/19 08:45:59;;;;;;;;;;;;;;;-144.99;39.79;52007.84;5064018;28;19929;-76
2022/07/19 08:48:27;;;;;;;;;;;;;;;-144.99;39.87;52001.75;5062641;28;19928;-77
2022/07/19 08:50:54;;;;;;;;;;;;;;;-144.99;39.27;51999.69;5070941;28;19989;-75
2022/07/19 08:53:21;;;;;;;;;;;;;;;-144.99;39.75;52030.28;5068813;28;20399;-77
2022/07/19 08:55:49;;;;;;;;;;;;;;;-144.99;38.70;52040.47;5063025;28;19924;-78
2022/07/19 08:58:14;;;;;;;;;;;;;;;-144.99;39.15;52024.16;5066810;28;19928;-76
2022/07/19 09:00:41;;;;;;;;;;;;;;;-144.99;38.82;51999.69;5073637;28;19928;-76
2022/07/19 09:03:08;;;;;;;;;;;;;;;-144.99;38.58;51997.66;5063825;28;19940;-77
2022/07/19 09:05:36;;;;;;;;;;;;;;;-144.99;38.22;51999.69;5062082;28;20176;-77
2022/07/19 09:08:04;;;;;;;;;;;;;;;-144.99;38.02;51995.63;5066142;28;19928;-77
2022/07/19 09:10:31;;;;;;;;;;;;;;;-144.99;38.23;52003.78;5057468;28;20015;-77
2022/07/19 09:12:59;;;;;;;;;;;;;;;-144.99;38.24;52003.78;5066040;28;19982;-74
2022/07/19 09:15:36;;;;;;;;;;;;;;;-144.99;37.56;51977.28;5067202;28;19928;-73
2022/07/19 09:18:06;;;;;;;;;;;;;;;-144.99;38.13;51995.63;5071716;28;19925;-76
2022/07/19 09:20:32;;;;;;;;;;;;;;;-144.99;37.24;51995.63;5071905;28;20222;-78
2022/07/19 09:23:01;;;;;;;;;;;;;;;-144.99;37.36;51971.16;5062175;28;20387;-76
2022/07/19 09:25:34;;;;;;;;;;;;;;;-144.99;36.28;52003.78;5067714;28;20204;-78
2022/07/19 09:28:01;;;;;;;;;;;;;;;-144.99;36.13;51954.88;5069083;28;19987;-76
2022/07/19 09:30:36;;;;;;;;;;;;;;;-144.99;35.97;51958.94;5074979;28;19931;-77
2022/07/19 09:33:11;;;;;;;;;;;;;;;-144.99;35.90;51958.94;5062341;28;20268;-78
2022/07/19 09:35:38;;;;;;;;;;;;;;;-144.99;35.38;51942.63;5061341;28;20564;-79
2022/07/19 09:38:17;;;;;;;;;;;;;;;-144.99;35.09;51967.09;5062808;28;19939;-75
2022/07/19 09:40:44;;;;;;;;;;;;;;;-144.99;35.53;51979.31;5077375;28;19932;-77
2022/07/19 09:43:10;;;;;;;;;;;;;;;-144.99;35.44;51905.97;5066322;28;20459;-79
2022/07/19 09:45:37;;;;;;;;;;;;;;;-144.99;35.64;51958.94;5065083;28;20015;-77
2022/07/19 09:48:04;;;;;;;;;;;;;;;-144.99;35.62;51950.78;5074086;28;19924;-76
2022/07/19 09:50:31;;;;;;;;;;;;;;;-144.99;35.44;51910.03;5070776;28;20014;-78
2022/07/19 09:52:59;;;;;;;;;;;;;;;-144.99;34.85;51954.88;5068047;28;19958;-76
2022/07/19 09:55:28;;;;;;;;;;;;;;;-144.99;34.45;51938.56;5065437;28;19928;-77
2022/07/19 09:57:56;;;;;;;;;;;;;;;-144.99;34.38;51938.56;5063879;28;20003;-76
2022/07/19 10:00:24;;;;;;;;;;;;;;;-144.99;34.48;51942.63;5065987;28;19929;-79
2022/07/19 10:02:52;;;;;;;;;;;;;;;-144.99;34.33;51916.16;5065668;28;19928;-74
2022/07/19 10:05:18;;;;;;;;;;;;;;;-144.99;34.19;51914.09;5066934;28;20230;-74
2022/07/19 10:07:45;;;;;;;;;;;;;;;-144.99;33.89;51885.56;5071098;28;19935;-77
2022/07/19 10:10:13;;;;;;;;;;;;;;;-144.99;33.82;51893.72;5075918;28;20469;-76
2022/07/19 10:12:43;;;;;;;;;;;;;;;-144.99;33.34;51938.56;5073269;28;20349;-76
2022/07/19 10:15:11;;;;;;;;;;;;;;;-144.99;32.78;51908.00;5064690;28;19931;-76
2022/07/19 10:17:40;;;;;;;;;;;;;;;-144.99;33.04;51905.97;5078209;28;19959;-76
2022/07/19 10:20:07;;;;;;;;;;;;;;;-144.99;32.92;51844.81;5080571;28;20022;-78
2022/07/19 10:22:34;;;;;;;;;;;;;;;-144.99;32.54;51891.69;5070830;28;20069;-77
2022/07/19 10:25:01;;;;;;;;;;;;;;;-144.99;33.37;51928.38;5064936;28;20049;-76
2022/07/19 10:27:38;;;;;;;;;;;;;;;-144.99;32.61;51893.72;5074626;28;20419;-75
2022/07/19 10:30:20;;;;;;;;;;;;;;;-144.99;32.20;51865.19;5073248;28;19939;-77
2022/07/19 10:32:48;;;;;;;;;;;;;;;-144.99;32.50;51869.28;5068410;28;20024;-76
2022/07/19 10:35:15;;;;;;;;;;;;;;;-144.99;32.57;51901.88;5064657;28;19929;-75
2022/07/19 10:37:42;;;;;;;;;;;;;;;-144.99;33.16;51877.44;5063709;28;19935;-76
2022/07/19 10:40:09;;;;;;;;;;;;;;;-144.99;32.78;51901.88;5064640;28;19929;-76
2022/07/19 10:42:36;;;;;;;;;;;;;;;-144.99;32.88;51885.56;5063485;28;19974;-73
2022/07/19 10:45:13;;;;;;;;;;;;;;;-144.99;32.68;51848.91;5065168;28;20462;-75
2022/07/19 10:47:58;;;;;;;;;;;;;;;-144.99;33.31;51893.72;5068386;28;19946;-73
2022/07/19 10:50:42;;;;;;;;;;;;;;;-144.99;32.86;51842.78;5069196;28;19939;-76
2022/07/19 10:53:08;;;;;;;;;;;;;;;-144.99;32.87;51836.66;5075766;28;19982;-75
2022/07/19 10:55:36;;;;;;;;;;;;;;;-144.99;32.53;51869.28;5068694;28;20315;-75
2022/07/19 10:58:09;;;;;;;;;;;;;;;-144.99;32.33;51814.25;5066874;28;19932;-75
2022/07/19 11:00:41;;;;;;;;;;;;;;;-144.99;32.25;51816.28;5069865;28;19977;-77
2022/07/19 11:03:26;;;;;;;;;;;;;;;-144.99;31.06;51791.84;5063398;28;19989;-77
2022/07/19 11:05:55;;;;;;;;;;;;;;;-144.99;31.29;51795.91;5071697;28;20425;-77
2022/07/19 11:08:31;;;;;;;;;;;;;;;-144.99;31.49;51840.75;5069993;28;19959;-77
2022/07/19 11:11:02;;;;;;;;;;;;;;;-144.99;31.29;51808.13;5064886;28;20350;-77
2022/07/19 11:13:29;;;;;;;;;;;;;;;-144.99;31.53;51893.72;5060027;28;20472;-76
2022/07/19 11:15:56;;;;;;;;;;;;;;;-144.99;31.00;51852.97;5077353;28;19925;-80
2022/07/19 11:18:22;;;;;;;;;;;;;;;-144.99;30.81;51820.38;5081356;28;20120;-73
2022/07/19 11:20:49;;;;;;;;;;;;;;;-144.99;31.06;51836.66;5068416;28;20462;-78
2022/07/19 11:23:20;;;;;;;;;;;;;;;-144.99;31.33;51838.72;5071510;28;19932;-77
2022/07/19 11:25:49;;;;;;;;;;;;;;;-144.99;31.34;51840.75;5069575;28;19924;-76
2022/07/19 11:28:22;;;;;;;;;;;;;;;-144.99;31.92;51846.84;5075595;28;19952;-76
2022/07/19 11:30:48;;;;;;;;;;;;;;;-144.99;31.47;51816.28;5066311;28;20138;-73
2022/07/19 11:33:17;;;;;;;;;;;;;;;-144.99;30.75;51816.28;5066722;28;19939;-78
2022/07/19 11:35:53;;;;;;;;;;;;;;;-144.99;31.16;51812.22;5063243;28;20300;-77
2022/07/19 11:38:21;;;;;;;;;;;;;;;-144.99;31.12;51834.63;5072237;28;20036;-77
2022/07/19 11:40:47;;;;;;;;;;;;;;;-144.99;30.86;51828.50;5071455;28;20391;-75
2022/07/19 11:43:14;;;;;;;;;;;;;;;-144.99;31.19;51816.28;5067583;28;20055;-76
2022/07/19 11:45:44;;;;;;;;;;;;;;;-144.99;31.18;51842.78;5064825;28;19929;-75
2022/07/19 11:48:11;;;;;;;;;;;;;;;-144.99;30.57;51828.50;5076329;28;19928;-74
2022/07/19 11:50:40;;;;;;;;;;;;;;;-144.99;30.24;51812.22;5070514;28;20012;-77
2022/07/19 11:53:07;;;;;;;;;;;;;;;-144.99;30.23;51791.84;5070220;28;19935;-74
2022/07/19 11:55:38;;;;;;;;;;;;;;;-144.99;30.94;51812.22;5064032;28;19997;-76
2022/07/19 11:58:08;;;;;;;;;;;;;;;-144.99;30.73;51799.97;5064338;28;19974;-77
2022/07/19 12:00:35;;;;;;;;;;;;;;;-144.99;30.57;51852.97;5063698;28;20588;-77
2022/07/19 12:03:04;;;;;;;;;;;;;;;-144.99;30.35;51802.03;5069334;28;19986;-77
2022/07/19 12:05:32;;;;;;;;;;;;;;;-144.99;30.44;51804.06;5063381;28;19928;-76
2022/07/19 12:08:00;;;;;;;;;;;;;;;-144.99;30.02;51787.75;5066810;28;19940;-75
2022/07/19 12:10:39;;;;;;;;;;;;;;;-144.99;30.22;51787.75;5059472;28;20018;-76
2022/07/19 12:13:07;;;;;;;;;;;;;;;-144.99;30.11;51804.06;5056850;28;19925;-76
2022/07/19 12:15:43;;;;;;;;;;;;;;;-144.99;30.10;51799.97;5063758;28;19929;-76
2022/07/19 12:18:12;;;;;;;;;;;;;;;-144.99;30.16;51802.03;5073570;28;20022;-76
2022/07/19 12:20:39;;;;;;;;;;;;;;;-144.99;30.45;51771.44;5078216;28;20475;-78
2022/07/19 12:23:12;;;;;;;;;;;;;;;-144.99;30.33;51771.44;5067186;28;19932;-78
2022/07/19 12:25:40;;;;;;;;;;;;;;;-144.99;30.24;51767.38;5066306;28;19928;-77
2022/07/19 12:28:07;;;;;;;;;;;;;;;-144.99;29.80;51706.25;5070429;28;19935;-74
2022/07/19 12:30:33;;;;;;;;;;;;;;;-144.99;28.93;51759.22;5068607;28;19956;-76